sensor_id;sensor_type;location;lat;lon;timestamp;pressure;altitude;pressure_sealevel;temperature;humidity
27040;BME280;14589;51.578;7.306;2023-11-19T00:02:23;100468.44;;;10.08;100.00
27040;BME280;14589;51.578;7.306;2023-11-19T00:04:54;100488.72;;;10.04;100.00
27040;BME280;14589;51.578;7.306;2023-11-19T00:07:24;100505.66;;;10.06;100.00
27040;BME280;14589;51.578;7.306;2023-11-19T00:09:57;100509.06;;;10.08;100.00
27040;BME280;14589;51.578;7.306;2023-11-19T00:12:29;100509.22;;;10.17;100.00
27040;BME280;14589;51.578;7.306;2023-11-19T00:15:00;100509.06;;;10.18;100.00
27040;BME280;14589;51.578;7.306;2023-11-19T00:17:30;100508.78;;;10.11;100.00
27040;BME280;14589;51.578;7.306;2023-11-19T00:20:01;100500.19;;;10.16;100.00
27040;BME280;14589;51.578;7.306;2023-11-19T00:22:31;100495.06;;;10.13;100.00
27040;BME280;14589;51.578;7.306;2023-11-19T00:25:01;100495.91;;;10.13;100.00
27040;BME280;14589;51.578;7.306;2023-11-19T00:27:32;100485.94;;;10.14;100.00
27040;BME280;14589;51.578;7.306;2023-11-19T00:30:04;100480.66;;;10.12;100.00
27040;BME280;14589;51.578;7.306;2023-11-19T00:32:35;100481.22;;;10.16;100.00
27040;BME280;14589;51.578;7.306;2023-11-19T00:35:07;100494.22;;;10.12;100.00
27040;BME280;14589;51.578;7.306;2023-11-19T00:37:37;100486.53;;;10.18;100.00
27040;BME280;14589;51.578;7.306;2023-11-19T00:40:08;100471.59;;;10.31;100.00
27040;BME280;14589;51.578;7.306;2023-11-19T00:42:40;100478.81;;;10.40;100.00
27040;BME280;14589;51.578;7.306;2023-11-19T00:45:11;100472.91;;;10.45;100.00
27040;BME280;14589;51.578;7.306;2023-11-19T00:47:43;100454.41;;;10.40;100.00
27040;BME280;14589;51.578;7.306;2023-11-19T00:50:13;100449.75;;;10.50;100.00
27040;BME280;14589;51.578;7.306;2023-11-19T00:52:43;100454.94;;;10.62;100.00
27040;BME280;14589;51.578;7.306;2023-11-19T00:55:14;100456.19;;;10.67;100.00
27040;BME280;14589;51.578;7.306;2023-11-19T00:57:44;100448.44;;;10.72;100.00
27040;BME280;14589;51.578;7.306;2023-11-19T01:00:15;100448.13;;;10.75;100.00
27040;BME280;14589;51.578;7.306;2023-11-19T01:02:48;100444.41;;;10.76;100.00
27040;BME280;14589;51.578;7.306;2023-11-19T01:05:20;100454.63;;;10.82;100.00
27040;BME280;14589;51.578;7.306;2023-11-19T01:07:52;100435.47;;;10.84;100.00
27040;BME280;14589;51.578;7.306;2023-11-19T01:10:24;100440.34;;;10.80;100.00
27040;BME280;14589;51.578;7.306;2023-11-19T01:12:56;100436.63;;;10.81;100.00
27040;BME280;14589;51.578;7.306;2023-11-19T01:15:27;100439.19;;;10.83;100.00
27040;BME280;14589;51.578;7.306;2023-11-19T01:17:57;100432.22;;;10.80;100.00
27040;BME280;14589;51.578;7.306;2023-11-19T01:20:28;100444.94;;;10.80;100.00
27040;BME280;14589;51.578;7.306;2023-11-19T01:22:59;100446.84;;;10.87;100.00
27040;BME280;14589;51.578;7.306;2023-11-19T01:25:29;100446.56;;;10.90;100.00
27040;BME280;14589;51.578;7.306;2023-11-19T01:28:00;100450.16;;;10.99;100.00
27040;BME280;14589;51.578;7.306;2023-11-19T01:30:32;100457.28;;;11.00;100.00
27040;BME280;14589;51.578;7.306;2023-11-19T01:33:02;100450.50;;;10.96;100.00
27040;BME280;14589;51.578;7.306;2023-11-19T01:35:33;100437.63;;;10.98;100.00
27040;BME280;14589;51.578;7.306;2023-11-19T01:38:04;100433.03;;;10.99;100.00
27040;BME280;14589;51.578;7.306;2023-11-19T01:40:35;100436.44;;;11.01;100.00
27040;BME280;14589;51.578;7.306;2023-11-19T01:43:06;100441.34;;;10.97;100.00
27040;BME280;14589;51.578;7.306;2023-11-19T01:45:37;100445.78;;;10.98;100.00
27040;BME280;14589;51.578;7.306;2023-11-19T01:48:08;100436.44;;;11.01;100.00
27040;BME280;14589;51.578;7.306;2023-11-19T01:50:41;100418.78;;;10.97;100.00
27040;BME280;14589;51.578;7.306;2023-11-19T01:53:12;100426.78;;;10.98;100.00
27040;BME280;14589;51.578;7.306;2023-11-19T01:55:42;100423.22;;;10.98;100.00
27040;BME280;14589;51.578;7.306;2023-11-19T01:58:13;100408.00;;;11.05;100.00
27040;BME280;14589;51.578;7.306;2023-11-19T02:00:44;100400.31;;;11.00;100.00
27040;BME280;14589;51.578;7.306;2023-11-19T02:03:15;100399.22;;;11.11;100.00
27040;BME280;14589;51.578;7.306;2023-11-19T02:05:48;100408.88;;;11.13;100.00
27040;BME280;14589;51.578;7.306;2023-11-19T02:08:19;100392.31;;;11.24;100.00
27040;BME280;14589;51.578;7.306;2023-11-19T02:10:50;100405.03;;;11.24;100.00
27040;BME280;14589;51.578;7.306;2023-11-19T02:13:26;100396.53;;;11.19;100.00
27040;BME280;14589;51.578;7.306;2023-11-19T02:15:56;100385.38;;;11.22;100.00
27040;BME280;14589;51.578;7.306;2023-11-19T02:18:28;100392.00;;;11.27;100.00
27040;BME280;14589;51.578;7.306;2023-11-19T02:20:59;100387.44;;;11.28;100.00
27040;BME280;14589;51.578;7.306;2023-11-19T02:23:30;100390.66;;;11.31;100.00
27040;BME280;14589;51.578;7.306;2023-11-19T02:26:12;100388.50;;;11.35;100.00
27040;BME280;14589;51.578;7.306;2023-11-19T02:28:46;100377.09;;;11.31;100.00
27040;BME280;14589;51.578;7.306;2023-11-19T02:31:17;100378.94;;;11.31;100.00
27040;BME280;14589;51.578;7.306;2023-11-19T02:33:47;100395.59;;;11.36;100.00
27040;BME280;14589;51.578;7.306;2023-11-19T02:36:20;100383.53;;;11.30;100.00
27040;BME280;14589;51.578;7.306;2023-11-19T02:38:51;100380.34;;;11.35;100.00
27040;BME280;14589;51.578;7.306;2023-11-19T02:41:22;100358.28;;;11.38;100.00
27040;BME280;14589;51.578;7.306;2023-11-19T02:43:52;100350.66;;;11.33;100.00
27040;BME280;14589;51.578;7.306;2023-11-19T02:46:23;100348.97;;;11.41;100.00
27040;BME280;14589;51.578;7.306;2023-11-19T02:48:54;100357.97;;;11.41;100.00
27040;BME280;14589;51.578;7.306;2023-11-19T02:51:24;100364.06;;;11.43;100.00
27040;BME280;14589;51.578;7.306;2023-11-19T02:53:55;100367.00;;;11.50;100.00
27040;BME280;14589;51.578;7.306;2023-11-19T02:56:25;100369.19;;;11.46;100.00
27040;BME280;14589;51.578;7.306;2023-11-19T02:58:56;100368.84;;;11.49;100.00
27040;BME280;14589;51.578;7.306;2023-11-19T03:01:27;100368.19;;;11.47;100.00
27040;BME280;14589;51.578;7.306;2023-11-19T03:04:01;100369.03;;;11.48;100.00
27040;BME280;14589;51.578;7.306;2023-11-19T03:06:32;100337.78;;;11.44;100.00
27040;BME280;14589;51.578;7.306;2023-11-19T03:09:02;100346.28;;;11.49;100.00
27040;BME280;14589;51.578;7.306;2023-11-19T03:11:40;100361.41;;;11.51;100.00
27040;BME280;14589;51.578;7.306;2023-11-19T03:14:10;100349.53;;;11.52;100.00
27040;BME280;14589;51.578;7.306;2023-11-19T03:16:40;100355.63;;;11.54;100.00
27040;BME280;14589;51.578;7.306;2023-11-19T03:19:11;100336.16;;;11.59;100.00
27040;BME280;14589;51.578;7.306;2023-11-19T03:21:41;100342.09;;;11.62;100.00
27040;BME280;14589;51.578;7.306;2023-11-19T03:24:15;100357.53;;;11.62;100.00
27040;BME280;14589;51.578;7.306;2023-11-19T03:26:49;100346.81;;;11.60;100.00
27040;BME280;14589;51.578;7.306;2023-11-19T03:29:22;100321.03;;;11.56;100.00
27040;BME280;14589;51.578;7.306;2023-11-19T03:31:53;100335.66;;;11.63;100.00
27040;BME280;14589;51.578;7.306;2023-11-19T03:34:23;100332.41;;;11.60;100.00
27040;BME280;14589;51.578;7.306;2023-11-19T03:36:54;100349.06;;;11.65;100.00
27040;BME280;14589;51.578;7.306;2023-11-19T03:39:24;100347.16;;;11.57;100.00
27040;BME280;14589;51.578;7.306;2023-11-19T03:41:55;100361.09;;;11.62;100.00
27040;BME280;14589;51.578;7.306;2023-11-19T03:44:27;100348.03;;;11.58;100.00
27040;BME280;14589;51.578;7.306;2023-11-19T03:46:57;100342.09;;;11.62;100.00
27040;BME280;14589;51.578;7.306;2023-11-19T03:49:28;100341.41;;;11.68;100.00
27040;BME280;14589;51.578;7.306;2023-11-19T03:51:58;100356.22;;;11.66;100.00
27040;BME280;14589;51.578;7.306;2023-11-19T03:54:28;100357.38;;;11.63;100.00
27040;BME280;14589;51.578;7.306;2023-11-19T03:56:59;100355.81;;;11.53;100.00
27040;BME280;14589;51.578;7.306;2023-11-19T03:59:30;100364.81;;;11.53;100.00
27040;BME280;14589;51.578;7.306;2023-11-19T04:02:00;100369.88;;;11.48;100.00
27040;BME280;14589;51.578;7.306;2023-11-19T04:04:32;100364.44;;;11.48;100.00
27040;BME280;14589;51.578;7.306;2023-11-19T04:07:03;100381.56;;;11.49;100.00
27040;BME280;14589;51.578;7.306;2023-11-19T04:09:34;100364.44;;;11.48;100.00
27040;BME280;14589;51.578;7.306;2023-11-19T04:12:05;100365.63;;;11.46;100.00
27040;BME280;14589;51.578;7.306;2023-11-19T04:14:36;100373.78;;;11.46;100.00
27040;BME280;14589;51.578;7.306;2023-11-19T04:17:06;100373.28;;;11.50;100.00
27040;BME280;14589;51.578;7.306;2023-11-19T04:19:37;100385.00;;;11.51;100.00
27040;BME280;14589;51.578;7.306;2023-11-19T04:22:09;100372.97;;;11.53;100.00
27040;BME280;14589;51.578;7.306;2023-11-19T04:24:39;100373.63;;;11.47;100.00
27040;BME280;14589;51.578;7.306;2023-11-19T04:27:11;100363.22;;;11.34;100.00
27040;BME280;14589;51.578;7.306;2023-11-19T04:29:42;100365.06;;;11.34;100.00
27040;BME280;14589;51.578;7.306;2023-11-19T04:32:13;100372.50;;;11.32;100.00
27040;BME280;14589;51.578;7.306;2023-11-19T04:34:43;100384.22;;;11.32;100.00
27040;BME280;14589;51.578;7.306;2023-11-19T04:37:14;100376.28;;;11.39;100.00
27040;BME280;14589;51.578;7.306;2023-11-19T04:39:44;100390.34;;;11.34;100.00
27040;BME280;14589;51.578;7.306;2023-11-19T04:42:16;100387.59;;;11.26;100.00
27040;BME280;14589;51.578;7.306;2023-11-19T04:44:47;100391.31;;;11.25;100.00
27040;BME280;14589;51.578;7.306;2023-11-19T04:47:17;100405.38;;;11.21;100.00
27040;BME280;14589;51.578;7.306;2023-11-19T04:49:48;100385.69;;;11.19;100.00
27040;BME280;14589;51.578;7.306;2023-11-19T04:52:18;100382.81;;;11.20;100.00
27040;BME280;14589;51.578;7.306;2023-11-19T04:54:48;100364.94;;;11.10;100.00
27040;BME280;14589;51.578;7.306;2023-11-19T04:57:19;100369.81;;;11.06;100.00
27040;BME280;14589;51.578;7.306;2023-11-19T04:59:49;100376.25;;;11.05;100.00
27040;BME280;14589;51.578;7.306;2023-11-19T05:02:20;100378.50;;;11.10;100.00
27040;BME280;14589;51.578;7.306;2023-11-19T05:04:50;100382.19;;;11.01;100.00
27040;BME280;14589;51.578;7.306;2023-11-19T05:07:20;100390.66;;;10.98;100.00
27040;BME280;14589;51.578;7.306;2023-11-19T05:09:51;100376.69;;;10.92;100.00
27040;BME280;14589;51.578;7.306;2023-11-19T05:12:21;100373.81;;;10.94;100.00
27040;BME280;14589;51.578;7.306;2023-11-19T05:14:53;100375.88;;;10.92;100.00
27040;BME280;14589;51.578;7.306;2023-11-19T05:17:23;100378.88;;;10.89;100.00
27040;BME280;14589;51.578;7.306;2023-11-19T05:19:54;100396.00;;;10.89;100.00
27040;BME280;14589;51.578;7.306;2023-11-19T05:22:24;100390.88;;;10.86;100.00
27040;BME280;14589;51.578;7.306;2023-11-19T05:24:56;100390.59;;;10.89;100.00
27040;BME280;14589;51.578;7.306;2023-11-19T05:27:26;100408.41;;;10.92;100.00
27040;BME280;14589;51.578;7.306;2023-11-19T05:29:57;100390.88;;;10.86;100.00
27040;BME280;14589;51.578;7.306;2023-11-19T05:32:27;100385.47;;;10.86;100.00
27040;BME280;14589;51.578;7.306;2023-11-19T05:34:57;100390.88;;;10.86;100.00
27040;BME280;14589;51.578;7.306;2023-11-19T05:37:28;100391.09;;;10.93;100.00
27040;BME280;14589;51.578;7.306;2023-11-19T05:39:58;100381.09;;;10.93;100.00
27040;BME280;14589;51.578;7.306;2023-11-19T05:42:30;100385.16;;;10.89;100.00
27040;BME280;14589;51.578;7.306;2023-11-19T05:45:00;100377.75;;;11.00;100.00
27040;BME280;14589;51.578;7.306;2023-11-19T05:47:31;100374.69;;;10.94;100.00
27040;BME280;14589;51.578;7.306;2023-11-19T05:50:01;100382.97;;;10.93;100.00
27040;BME280;14589;51.578;7.306;2023-11-19T05:52:32;100381.97;;;10.94;100.00
27040;BME280;14589;51.578;7.306;2023-11-19T05:55:04;100394.94;;;11.08;100.00
27040;BME280;14589;51.578;7.306;2023-11-19T05:57:36;100386.09;;;11.06;100.00
27040;BME280;14589;51.578;7.306;2023-11-19T06:00:07;100390.91;;;11.12;100.00
27040;BME280;14589;51.578;7.306;2023-11-19T06:02:41;100386.09;;;10.98;100.00
27040;BME280;14589;51.578;7.306;2023-11-19T06:05:12;100398.25;;;10.94;100.00
27040;BME280;14589;51.578;7.306;2023-11-19T06:07:42;100390.22;;;10.84;100.00
27040;BME280;14589;51.578;7.306;2023-11-19T06:10:13;100398.34;;;10.84;100.00
27040;BME280;14589;51.578;7.306;2023-11-19T06:12:46;100376.94;;;10.73;100.00
27040;BME280;14589;51.578;7.306;2023-11-19T06:15:17;100398.13;;;10.78;100.00
27040;BME280;14589;51.578;7.306;2023-11-19T06:17:48;100388.28;;;10.77;100.00
27040;BME280;14589;51.578;7.306;2023-11-19T06:20:18;100401.28;;;10.91;100.00
27040;BME280;14589;51.578;7.306;2023-11-19T06:22:50;100399.44;;;10.91;100.00
27040;BME280;14589;51.578;7.306;2023-11-19T06:25:20;100398.88;;;10.88;100.00
27040;BME280;14589;51.578;7.306;2023-11-19T06:27:51;100427.19;;;10.85;100.00
27040;BME280;14589;51.578;7.306;2023-11-19T06:30:22;100410.28;;;10.91;100.00
27040;BME280;14589;51.578;7.306;2023-11-19T06:32:52;100410.84;;;10.77;100.00
27040;BME280;14589;51.578;7.306;2023-11-19T06:35:22;100397.28;;;10.77;100.00
27040;BME280;14589;51.578;7.306;2023-11-19T06:37:53;100407.81;;;10.80;100.00
27040;BME280;14589;51.578;7.306;2023-11-19T06:40:23;100414.66;;;10.92;100.00
27040;BME280;14589;51.578;7.306;2023-11-19T06:42:53;100414.00;;;10.90;100.00
27040;BME280;14589;51.578;7.306;2023-11-19T06:45:24;100405.31;;;10.87;100.00
27040;BME280;14589;51.578;7.306;2023-11-19T06:47:54;100414.63;;;10.84;100.00
27040;BME280;14589;51.578;7.306;2023-11-19T06:50:25;100420.53;;;10.80;100.00
27040;BME280;14589;51.578;7.306;2023-11-19T06:52:55;100412.28;;;10.89;100.00
27040;BME280;14589;51.578;7.306;2023-11-19T06:55:26;100426.00;;;10.88;100.00
27040;BME280;14589;51.578;7.306;2023-11-19T06:57:56;100428.97;;;10.77;100.00
27040;BME280;14589;51.578;7.306;2023-11-19T07:00:27;100432.69;;;10.76;100.00
27040;BME280;14589;51.578;7.306;2023-11-19T07:02:58;100427.97;;;10.78;100.00
27040;BME280;14589;51.578;7.306;2023-11-19T07:05:29;100441.69;;;10.76;100.00
27040;BME280;14589;51.578;7.306;2023-11-19T07:08:00;100440.75;;;10.85;100.00
27040;BME280;14589;51.578;7.306;2023-11-19T07:10:31;100449.25;;;10.90;100.00
27040;BME280;14589;51.578;7.306;2023-11-19T07:13:01;100441.97;;;10.91;100.00
27040;BME280;14589;51.578;7.306;2023-11-19T07:15:37;100446.22;;;10.93;100.00
27040;BME280;14589;51.578;7.306;2023-11-19T07:18:07;100454.13;;;10.87;100.00
27040;BME280;14589;51.578;7.306;2023-11-19T07:20:38;100428.94;;;10.94;100.00
27040;BME280;14589;51.578;7.306;2023-11-19T07:23:10;100450.41;;;10.88;100.00
27040;BME280;14589;51.578;7.306;2023-11-19T07:25:40;100441.66;;;10.94;100.00
27040;BME280;14589;51.578;7.306;2023-11-19T07:28:11;100454.72;;;10.99;100.00
27040;BME280;14589;51.578;7.306;2023-11-19T07:30:41;100463.06;;;10.97;100.00
27040;BME280;14589;51.578;7.306;2023-11-19T07:33:12;100456.41;;;10.91;100.00
27040;BME280;14589;51.578;7.306;2023-11-19T07:35:43;100466.22;;;10.92;100.00
27040;BME280;14589;51.578;7.306;2023-11-19T07:38:14;100466.84;;;10.86;100.00
27040;BME280;14589;51.578;7.306;2023-11-19T07:40:45;100466.22;;;10.92;100.00
27040;BME280;14589;51.578;7.306;2023-11-19T07:43:15;100462.19;;;10.97;100.00
27040;BME280;14589;51.578;7.306;2023-11-19T07:45:46;100469.34;;;10.98;100.00
27040;BME280;14589;51.578;7.306;2023-11-19T07:48:16;100467.84;;;11.03;100.00
27040;BME280;14589;51.578;7.306;2023-11-19T07:50:53;100474.44;;;11.01;100.00
27040;BME280;14589;51.578;7.306;2023-11-19T07:53:27;100487.63;;;10.95;100.00
27040;BME280;14589;51.578;7.306;2023-11-19T07:55:59;100472.19;;;10.96;100.00
27040;BME280;14589;51.578;7.306;2023-11-19T07:58:32;100476.41;;;10.90;100.00
27040;BME280;14589;51.578;7.306;2023-11-19T08:01:02;100484.53;;;10.90;100.00
27040;BME280;14589;51.578;7.306;2023-11-19T08:03:33;100477.91;;;10.93;100.00
27040;BME280;14589;51.578;7.306;2023-11-19T08:06:06;100491.91;;;10.98;100.00
27040;BME280;14589;51.578;7.306;2023-11-19T08:08:37;100489.56;;;11.03;100.00
27040;BME280;14589;51.578;7.306;2023-11-19T08:11:08;100480.22;;;11.06;100.00
27040;BME280;14589;51.578;7.306;2023-11-19T08:13:38;100495.94;;;11.20;100.00
27040;BME280;14589;51.578;7.306;2023-11-19T08:16:09;100489.38;;;11.22;100.00
27040;BME280;14589;51.578;7.306;2023-11-19T08:18:43;100508.19;;;11.24;100.00
27040;BME280;14589;51.578;7.306;2023-11-19T08:21:14;100505.16;;;11.27;100.00
27040;BME280;14589;51.578;7.306;2023-11-19T08:23:45;100495.66;;;11.23;100.00
27040;BME280;14589;51.578;7.306;2023-11-19T08:26:15;100488.50;;;11.22;100.00
27040;BME280;14589;51.578;7.306;2023-11-19T08:28:46;100491.22;;;11.22;100.00
27040;BME280;14589;51.578;7.306;2023-11-19T08:31:16;100502.13;;;11.30;100.00
27040;BME280;14589;51.578;7.306;2023-11-19T08:33:47;100510.59;;;11.27;100.00
27040;BME280;14589;51.578;7.306;2023-11-19T08:36:17;100513.69;;;11.32;100.00
27040;BME280;14589;51.578;7.306;2023-11-19T08:38:48;100512.34;;;11.36;100.00
27040;BME280;14589;51.578;7.306;2023-11-19T08:41:18;100516.13;;;11.43;100.00
27040;BME280;14589;51.578;7.306;2023-11-19T08:43:49;100520.25;;;11.47;100.00
27040;BME280;14589;51.578;7.306;2023-11-19T08:46:20;100507.34;;;11.49;100.00
27040;BME280;14589;51.578;7.306;2023-11-19T08:48:50;100512.13;;;11.55;100.00
27040;BME280;14589;51.578;7.306;2023-11-19T08:51:21;100508.03;;;11.51;100.00
27040;BME280;14589;51.578;7.306;2023-11-19T08:53:51;100508.09;;;11.59;100.00
27040;BME280;14589;51.578;7.306;2023-11-19T08:56:21;100513.47;;;11.51;100.00
27040;BME280;14589;51.578;7.306;2023-11-19T08:58:52;100517.75;;;11.54;100.00
27040;BME280;14589;51.578;7.306;2023-11-19T09:01:22;100508.84;;;11.44;100.00
27040;BME280;14589;51.578;7.306;2023-11-19T09:03:53;100490.53;;;11.46;100.00
27040;BME280;14589;51.578;7.306;2023-11-19T09:06:23;100509.31;;;11.39;100.00
27040;BME280;14589;51.578;7.306;2023-11-19T09:08:54;100510.88;;;11.42;100.00
27040;BME280;14589;51.578;7.306;2023-11-19T09:11:29;100506.88;;;11.54;100.00
27040;BME280;14589;51.578;7.306;2023-11-19T09:13:59;100519.63;;;11.61;100.00
27040;BME280;14589;51.578;7.306;2023-11-19T09:16:29;100525.28;;;11.68;100.00
27040;BME280;14589;51.578;7.306;2023-11-19T09:19:00;100520.53;;;11.70;100.00
27040;BME280;14589;51.578;7.306;2023-11-19T09:21:32;100511.38;;;11.71;100.00
27040;BME280;14589;51.578;7.306;2023-11-19T09:24:04;100517.91;;;11.78;100.00
27040;BME280;14589;51.578;7.306;2023-11-19T09:26:35;100524.38;;;11.85;100.00
27040;BME280;14589;51.578;7.306;2023-11-19T09:29:06;100502.84;;;11.92;100.00
27040;BME280;14589;51.578;7.306;2023-11-19T09:31:38;100522.91;;;11.99;100.00
27040;BME280;14589;51.578;7.306;2023-11-19T09:34:09;100514.91;;;11.97;100.00
27040;BME280;14589;51.578;7.306;2023-11-19T09:36:39;100514.91;;;11.97;100.00
27040;BME280;14589;51.578;7.306;2023-11-19T09:39:14;100512.94;;;12.07;100.00
27040;BME280;14589;51.578;7.306;2023-11-19T09:41:48;100516.84;;;12.05;100.00
27040;BME280;14589;51.578;7.306;2023-11-19T09:44:19;100496.09;;;12.04;100.00
27040;BME280;14589;51.578;7.306;2023-11-19T09:46:50;100503.59;;;12.02;100.00
27040;BME280;14589;51.578;7.306;2023-11-19T09:49:21;100513.25;;;12.04;100.00
27040;BME280;14589;51.578;7.306;2023-11-19T09:51:53;100508.69;;;12.05;100.00
27040;BME280;14589;51.578;7.306;2023-11-19T09:54:24;100506.31;;;12.02;100.00
27040;BME280;14589;51.578;7.306;2023-11-19T09:56:57;100521.75;;;12.01;100.00
27040;BME280;14589;51.578;7.306;2023-11-19T09:59:33;100505.28;;;12.03;100.00
27040;BME280;14589;51.578;7.306;2023-11-19T10:02:04;100503.38;;;11.95;100.00
27040;BME280;14589;51.578;7.306;2023-11-19T10:04:35;100513.75;;;12.00;100.00
27040;BME280;14589;51.578;7.306;2023-11-19T10:07:06;100513.44;;;12.03;100.00
27040;BME280;14589;51.578;7.306;2023-11-19T10:09:36;100522.06;;;11.98;100.00
27040;BME280;14589;51.578;7.306;2023-11-19T10:12:07;100507.63;;;11.98;100.00
27040;BME280;14589;51.578;7.306;2023-11-19T10:14:37;100516.13;;;11.95;100.00
27040;BME280;14589;51.578;7.306;2023-11-19T10:17:09;100512.03;;;11.91;100.00
27040;BME280;14589;51.578;7.306;2023-11-19T10:19:40;100488.09;;;11.94;100.00
27040;BME280;14589;51.578;7.306;2023-11-19T10:22:11;100496.94;;;11.96;100.00
27040;BME280;14589;51.578;7.306;2023-11-19T10:24:42;100500.13;;;11.92;100.00
27040;BME280;14589;51.578;7.306;2023-11-19T10:27:12;100487.94;;;11.96;100.00
27040;BME280;14589;51.578;7.306;2023-11-19T10:29:45;100487.28;;;12.02;100.00
27040;BME280;14589;51.578;7.306;2023-11-19T10:32:17;100495.09;;;12.05;100.00
27040;BME280;14589;51.578;7.306;2023-11-19T10:34:47;100490.69;;;12.12;100.00
27040;BME280;14589;51.578;7.306;2023-11-19T10:37:28;100492.56;;;12.11;100.00
27040;BME280;14589;51.578;7.306;2023-11-19T10:40:08;100480.84;;;12.11;100.00
27040;BME280;14589;51.578;7.306;2023-11-19T10:42:41;100486.81;;;12.14;100.00
27040;BME280;14589;51.578;7.306;2023-11-19T10:45:24;100500.41;;;12.23;99.51
27040;BME280;14589;51.578;7.306;2023-11-19T10:47:55;100487.88;;;12.22;99.96
27040;BME280;14589;51.578;7.306;2023-11-19T10:50:28;100484.59;;;12.18;99.31
27040;BME280;14589;51.578;7.306;2023-11-19T10:52:59;100479.19;;;12.26;98.55
27040;BME280;14589;51.578;7.306;2023-11-19T10:55:34;100489.56;;;12.31;98.67
27040;BME280;14589;51.578;7.306;2023-11-19T10:58:16;100479.72;;;12.22;100.00
27040;BME280;14589;51.578;7.306;2023-11-19T11:00:56;100471.00;;;12.18;100.00
27040;BME280;14589;51.578;7.306;2023-11-19T11:03:36;100469.00;;;12.20;99.51
27040;BME280;14589;51.578;7.306;2023-11-19T11:06:10;100474.44;;;12.28;100.00
27040;BME280;14589;51.578;7.306;2023-11-19T11:08:41;100486.72;;;12.40;99.91
27040;BME280;14589;51.578;7.306;2023-11-19T11:11:15;100479.09;;;12.52;97.04
27040;BME280;14589;51.578;7.306;2023-11-19T11:13:53;100482.00;;;12.75;95.92
27040;BME280;14589;51.578;7.306;2023-11-19T11:16:25;100489.66;;;12.79;94.46
27040;BME280;14589;51.578;7.306;2023-11-19T11:18:56;100472.81;;;12.76;94.42
27040;BME280;14589;51.578;7.306;2023-11-19T11:21:27;100471.28;;;12.81;92.71
27040;BME280;14589;51.578;7.306;2023-11-19T11:26:57;100478.25;;;12.76;93.14
27040;BME280;14589;51.578;7.306;2023-11-19T11:29:39;100477.06;;;12.70;93.50
27040;BME280;14589;51.578;7.306;2023-11-19T11:35:16;100491.34;;;12.64;94.78
27040;BME280;14589;51.578;7.306;2023-11-19T11:37:55;100474.66;;;12.59;93.35
27040;BME280;14589;51.578;7.306;2023-11-19T11:40:29;100484.91;;;12.65;93.12
27040;BME280;14589;51.578;7.306;2023-11-19T11:43:02;100471.78;;;12.69;93.61
27040;BME280;14589;51.578;7.306;2023-11-19T11:45:39;100477.56;;;12.66;93.36
27040;BME280;14589;51.578;7.306;2023-11-19T11:48:17;100465.34;;;12.70;92.85
27040;BME280;14589;51.578;7.306;2023-11-19T11:50:55;100474.00;;;12.73;94.24
27040;BME280;14589;51.578;7.306;2023-11-19T11:53:30;100446.44;;;12.60;95.35
27040;BME280;14589;51.578;7.306;2023-11-19T11:56:00;100450.38;;;12.57;94.88
27040;BME280;14589;51.578;7.306;2023-11-19T11:58:35;100441.88;;;12.52;95.01
27040;BME280;14589;51.578;7.306;2023-11-19T12:01:06;100446.94;;;12.55;95.56
27040;BME280;14589;51.578;7.306;2023-11-19T12:03:37;100458.69;;;12.56;95.53
27040;BME280;14589;51.578;7.306;2023-11-19T12:06:08;100444.06;;;12.57;94.89
27040;BME280;14589;51.578;7.306;2023-11-19T12:08:38;100452.75;;;12.52;95.02
27040;BME280;14589;51.578;7.306;2023-11-19T12:11:10;100451.03;;;12.51;94.28
27040;BME280;14589;51.578;7.306;2023-11-19T12:13:53;100447.66;;;12.57;94.04
27040;BME280;14589;51.578;7.306;2023-11-19T12:16:24;100425.34;;;12.54;92.69
27040;BME280;14589;51.578;7.306;2023-11-19T12:18:54;100442.53;;;12.63;92.72
27040;BME280;14589;51.578;7.306;2023-11-19T12:21:30;100442.03;;;12.75;92.91
27040;BME280;14589;51.578;7.306;2023-11-19T12:24:01;100451.56;;;12.71;92.16
27040;BME280;14589;51.578;7.306;2023-11-19T12:26:38;100431.47;;;12.72;90.45
27040;BME280;14589;51.578;7.306;2023-11-19T12:29:08;100448.66;;;12.73;90.12
27040;BME280;14589;51.578;7.306;2023-11-19T12:31:44;100444.25;;;12.64;90.38
27040;BME280;14589;51.578;7.306;2023-11-19T12:34:14;100433.22;;;12.65;90.29
27040;BME280;14589;51.578;7.306;2023-11-19T12:36:44;100419.59;;;12.65;89.76
27040;BME280;14589;51.578;7.306;2023-11-19T12:39:15;100419.91;;;12.78;89.46
27040;BME280;14589;51.578;7.306;2023-11-19T12:41:50;100415.16;;;12.80;89.15
27040;BME280;14589;51.578;7.306;2023-11-19T12:44:21;100419.75;;;12.72;89.94
27040;BME280;14589;51.578;7.306;2023-11-19T12:47:04;100414.31;;;12.80;89.70
27040;BME280;14589;51.578;7.306;2023-11-19T12:49:36;100411.75;;;12.86;87.14
27040;BME280;14589;51.578;7.306;2023-11-19T12:52:13;100414.31;;;12.88;87.14
27040;BME280;14589;51.578;7.306;2023-11-19T12:54:43;100411.25;;;12.83;88.23
27040;BME280;14589;51.578;7.306;2023-11-19T12:57:14;100407.50;;;12.84;87.89
27040;BME280;14589;51.578;7.306;2023-11-19T12:59:56;100406.66;;;12.83;87.20
27040;BME280;14589;51.578;7.306;2023-11-19T13:02:49;100426.88;;;12.73;90.07
27040;BME280;14589;51.578;7.306;2023-11-19T13:05:24;100422.81;;;12.61;93.67
27040;BME280;14589;51.578;7.306;2023-11-19T13:08:04;100420.44;;;12.49;97.34
27040;BME280;14589;51.578;7.306;2023-11-19T13:10:53;100415.00;;;12.33;100.00